La Place, Illinois
Current Conditions -  °F | °C
As of 2:54 PM on Saturday 22 Nov 2014 (Local Time) from KDEC Reporting Station
Overcast Overcast  
Wind Chill: 56°   Ceiling: 2500
Heat Index: 56°   Visibility: 10mi
Dew Point: 46°   Wind: 18mph
Humidity: 69%   Direction: 200°SSW
Pressure: 29.95"   Gusts: NA
Location:  39.8°N, 88.71°W
Report Text: KDEC 222054Z 20016KT 10SM OVC025 13/08 A2995 RMK AO2 SLP144 T01330078 56022
Loading
Personal Weather Stations






























Interactive Weather Map New forecast layout! Learn more

10-Day Weather Forecast

Advertisements
Track Severe Weather on mobile